sensor_id;sensor_type;location;lat;lon;timestamp;pressure;altitude;pressure_sealevel;temperature;humidity
25430;BME280;13360;48.152;-1.788;2023-03-21T00:01:04;101739.34;;;12.85;100.00
25430;BME280;13360;48.152;-1.788;2023-03-21T00:03:31;101733.78;;;12.85;100.00
25430;BME280;13360;48.152;-1.788;2023-03-21T00:05:58;101737.72;;;12.78;100.00
25430;BME280;13360;48.152;-1.788;2023-03-21T00:08:24;101746.63;;;12.75;100.00
25430;BME280;13360;48.152;-1.788;2023-03-21T00:10:57;101738.28;;;12.75;100.00
25430;BME280;13360;48.152;-1.788;2023-03-21T00:13:24;101734.47;;;12.66;100.00
25430;BME280;13360;48.152;-1.788;2023-03-21T00:15:51;101742.19;;;12.69;100.00
25430;BME280;13360;48.152;-1.788;2023-03-21T00:18:22;101735.56;;;12.70;100.00
25430;BME280;13360;48.152;-1.788;2023-03-21T00:21:04;101743.88;;;12.65;100.00
25430;BME280;13360;48.152;-1.788;2023-03-21T00:23:30;101744.44;;;12.67;100.00
25430;BME280;13360;48.152;-1.788;2023-03-21T00:25:56;101743.34;;;12.63;100.00
25430;BME280;13360;48.152;-1.788;2023-03-21T00:28:22;101752.19;;;12.65;100.00
25430;BME280;13360;48.152;-1.788;2023-03-21T00:30:49;101756.34;;;12.68;100.00
25430;BME280;13360;48.152;-1.788;2023-03-21T00:33:14;101757.75;;;12.65;100.00
25430;BME280;13360;48.152;-1.788;2023-03-21T00:35:41;101757.75;;;12.65;100.00
25430;BME280;13360;48.152;-1.788;2023-03-21T00:38:09;101766.06;;;12.65;100.00
25430;BME280;13360;48.152;-1.788;2023-03-21T00:40:35;101774.38;;;12.65;100.00
25430;BME280;13360;48.152;-1.788;2023-03-21T00:43:00;101775.25;;;12.61;100.00
25430;BME280;13360;48.152;-1.788;2023-03-21T00:45:26;101765.59;;;12.53;100.00
25430;BME280;13360;48.152;-1.788;2023-03-21T00:47:52;101780.53;;;12.57;100.00
25430;BME280;13360;48.152;-1.788;2023-03-21T00:50:17;101789.66;;;12.58;100.00
25430;BME280;13360;48.152;-1.788;2023-03-21T00:52:43;101796.06;;;12.53;100.00
25430;BME280;13360;48.152;-1.788;2023-03-21T00:55:13;101813.81;;;12.52;100.00
25430;BME280;13360;48.152;-1.788;2023-03-21T00:57:39;101820.19;;;12.47;100.00
25430;BME280;13360;48.152;-1.788;2023-03-21T01:00:05;101824.34;;;12.50;100.00
25430;BME280;13360;48.152;-1.788;2023-03-21T01:02:32;101834.31;;;12.51;100.00
25430;BME280;13360;48.152;-1.788;2023-03-21T01:04:57;101839.88;;;12.51;100.00
25430;BME280;13360;48.152;-1.788;2023-03-21T01:07:23;101835.16;;;12.51;100.00
25430;BME280;13360;48.152;-1.788;2023-03-21T01:09:48;101852.59;;;12.57;100.00
25430;BME280;13360;48.152;-1.788;2023-03-21T01:12:14;101852.03;;;12.55;100.00
25430;BME280;13360;48.152;-1.788;2023-03-21T01:14:40;101841.56;;;12.42;100.00
25430;BME280;13360;48.152;-1.788;2023-03-21T01:17:06;101843.22;;;12.38;100.00
25430;BME280;13360;48.152;-1.788;2023-03-21T01:19:31;101850.44;;;12.39;100.00
25430;BME280;13360;48.152;-1.788;2023-03-21T01:21:58;101851.53;;;12.38;100.00
25430;BME280;13360;48.152;-1.788;2023-03-21T01:24:24;101862.09;;;12.31;100.00
25430;BME280;13360;48.152;-1.788;2023-03-21T01:26:49;101868.44;;;12.36;100.00
25430;BME280;13360;48.152;-1.788;2023-03-21T01:29:15;101879.78;;;12.40;100.00
25430;BME280;13360;48.152;-1.788;2023-03-21T01:31:40;101876.47;;;12.43;100.00
25430;BME280;13360;48.152;-1.788;2023-03-21T01:34:05;101871.78;;;12.38;100.00
25430;BME280;13360;48.152;-1.788;2023-03-21T01:36:31;101863.19;;;12.35;100.00
25430;BME280;13360;48.152;-1.788;2023-03-21T01:38:56;101877.03;;;12.35;100.00
25430;BME280;13360;48.152;-1.788;2023-03-21T01:41:30;101883.13;;;12.27;100.00
25430;BME280;13360;48.152;-1.788;2023-03-21T01:43:56;101882.03;;;12.33;100.00
25430;BME280;13360;48.152;-1.788;2023-03-21T01:51:38;101890.09;;;12.29;100.00
25430;BME280;13360;48.152;-1.788;2023-03-21T01:54:07;101899.47;;;12.28;100.00
25430;BME280;13360;48.152;-1.788;2023-03-21T01:56:37;101906.44;;;12.31;100.00
25430;BME280;13360;48.152;-1.788;2023-03-21T02:01:48;101917.50;;;12.26;100.00
25430;BME280;13360;48.152;-1.788;2023-03-21T02:04:15;101923.34;;;12.29;100.00
25430;BME280;13360;48.152;-1.788;2023-03-21T02:06:52;101939.66;;;12.31;100.00
25430;BME280;13360;48.152;-1.788;2023-03-21T02:09:23;101942.44;;;12.36;100.00
25430;BME280;13360;48.152;-1.788;2023-03-21T02:11:50;101939.09;;;12.39;100.00
25430;BME280;13360;48.152;-1.788;2023-03-21T02:14:17;101937.44;;;12.38;100.00
25430;BME280;13360;48.152;-1.788;2023-03-21T02:16:51;101940.22;;;12.33;100.00
25430;BME280;13360;48.152;-1.788;2023-03-21T02:27:23;101995.06;;;12.26;100.00
25430;BME280;13360;48.152;-1.788;2023-03-21T02:35:18;101991.19;;;12.27;100.00
25430;BME280;13360;48.152;-1.788;2023-03-21T02:38:10;102009.75;;;12.26;100.00
25430;BME280;13360;48.152;-1.788;2023-03-21T02:40:46;102026.66;;;12.19;100.00
25430;BME280;13360;48.152;-1.788;2023-03-21T02:46:07;102049.91;;;12.24;100.00
25430;BME280;13360;48.152;-1.788;2023-03-21T02:48:37;102057.41;;;12.33;100.00
25430;BME280;13360;48.152;-1.788;2023-03-21T02:51:04;102058.81;;;12.31;100.00
25430;BME280;13360;48.152;-1.788;2023-03-21T02:53:35;102065.16;;;12.36;100.00
25430;BME280;13360;48.152;-1.788;2023-03-21T02:56:03;102064.59;;;12.39;100.00
25430;BME280;13360;48.152;-1.788;2023-03-21T02:58:29;102052.97;;;12.42;100.00
25430;BME280;13360;48.152;-1.788;2023-03-21T03:00:56;102061.56;;;12.41;100.00
25430;BME280;13360;48.152;-1.788;2023-03-21T03:03:22;102078.75;;;12.38;100.00
25430;BME280;13360;48.152;-1.788;2023-03-21T03:05:51;102089.28;;;12.36;100.00
25430;BME280;13360;48.152;-1.788;2023-03-21T03:13:43;102141.38;;;12.34;100.00
25430;BME280;13360;48.152;-1.788;2023-03-21T03:18:53;102149.69;;;12.44;100.00
25430;BME280;13360;48.152;-1.788;2023-03-21T03:24:16;102166.31;;;12.49;100.00
25430;BME280;13360;48.152;-1.788;2023-03-21T03:26:50;102155.50;;;12.47;100.00
25430;BME280;13360;48.152;-1.788;2023-03-21T03:29:19;102162.97;;;12.47;100.00
25430;BME280;13360;48.152;-1.788;2023-03-21T03:31:59;102158.25;;;12.47;100.00
25430;BME280;13360;48.152;-1.788;2023-03-21T03:34:30;102156.09;;;12.49;100.00
25430;BME280;13360;48.152;-1.788;2023-03-21T03:37:00;102160.50;;;12.50;100.00
25430;BME280;13360;48.152;-1.788;2023-03-21T03:42:40;102205.97;;;12.49;100.00
25430;BME280;13360;48.152;-1.788;2023-03-21T03:45:08;102204.03;;;12.50;100.00
25430;BME280;13360;48.152;-1.788;2023-03-21T03:47:41;102221.19;;;12.47;100.00
25430;BME280;13360;48.152;-1.788;2023-03-21T03:50:19;102235.03;;;12.47;100.00
25430;BME280;13360;48.152;-1.788;2023-03-21T03:52:51;102260.53;;;12.49;100.00
25430;BME280;13360;48.152;-1.788;2023-03-21T03:55:19;102274.97;;;12.51;100.00
25430;BME280;13360;48.152;-1.788;2023-03-21T03:57:46;102290.78;;;12.50;100.00
25430;BME280;13360;48.152;-1.788;2023-03-21T04:00:13;102318.22;;;12.52;100.00
25430;BME280;13360;48.152;-1.788;2023-03-21T04:02:40;102342.31;;;12.51;100.00
25430;BME280;13360;48.152;-1.788;2023-03-21T04:05:06;102322.09;;;12.51;100.00
25430;BME280;13360;48.152;-1.788;2023-03-21T04:07:31;102330.38;;;12.46;100.00
25430;BME280;13360;48.152;-1.788;2023-03-21T04:09:57;102353.91;;;12.43;100.00
25430;BME280;13360;48.152;-1.788;2023-03-21T04:12:23;102360.84;;;12.46;100.00
25430;BME280;13360;48.152;-1.788;2023-03-21T04:14:49;102364.72;;;12.45;100.00
25430;BME280;13360;48.152;-1.788;2023-03-21T04:17:15;102378.84;;;12.43;100.00
25430;BME280;13360;48.152;-1.788;2023-03-21T04:19:40;102381.34;;;12.45;100.00
25430;BME280;13360;48.152;-1.788;2023-03-21T04:22:07;102389.41;;;12.46;100.00
25430;BME280;13360;48.152;-1.788;2023-03-21T04:24:33;102395.22;;;12.45;100.00
25430;BME280;13360;48.152;-1.788;2023-03-21T04:27:01;102405.50;;;12.49;100.00
25430;BME280;13360;48.152;-1.788;2023-03-21T04:29:27;102403.56;;;12.50;100.00
25430;BME280;13360;48.152;-1.788;2023-03-21T04:31:54;102411.06;;;12.49;100.00
25430;BME280;13360;48.152;-1.788;2023-03-21T04:34:19;102430.69;;;12.48;100.00
25430;BME280;13360;48.152;-1.788;2023-03-21T04:36:50;102429.03;;;12.47;100.00
25430;BME280;13360;48.152;-1.788;2023-03-21T04:39:18;102450.09;;;12.48;100.00
25430;BME280;13360;48.152;-1.788;2023-03-21T04:41:44;102453.47;;;12.50;100.00
25430;BME280;13360;48.152;-1.788;2023-03-21T04:44:11;102462.03;;;12.48;100.00
25430;BME280;13360;48.152;-1.788;2023-03-21T04:46:38;102463.44;;;12.51;100.00
25430;BME280;13360;48.152;-1.788;2023-03-21T04:49:03;102475.66;;;12.55;100.00
25430;BME280;13360;48.152;-1.788;2023-03-21T04:51:29;102467.91;;;12.57;100.00
25430;BME280;13360;48.152;-1.788;2023-03-21T04:53:55;102472.59;;;12.51;100.00
25430;BME280;13360;48.152;-1.788;2023-03-21T04:56:23;102483.41;;;12.53;100.00
25430;BME280;13360;48.152;-1.788;2023-03-21T04:58:55;102501.16;;;12.52;100.00
25430;BME280;13360;48.152;-1.788;2023-03-21T05:01:21;102508.91;;;12.50;100.00
25430;BME280;13360;48.152;-1.788;2023-03-21T05:03:46;102522.25;;;12.58;100.00
25430;BME280;13360;48.152;-1.788;2023-03-21T05:06:12;102526.41;;;12.61;100.00
25430;BME280;13360;48.152;-1.788;2023-03-21T05:08:37;102543.59;;;12.58;100.00
25430;BME280;13360;48.152;-1.788;2023-03-21T05:11:03;102550.53;;;12.60;100.00
25430;BME280;13360;48.152;-1.788;2023-03-21T05:13:28;102559.69;;;12.61;100.00
25430;BME280;13360;48.152;-1.788;2023-03-21T05:15:54;102564.91;;;12.52;100.00
25430;BME280;13360;48.152;-1.788;2023-03-21T05:18:19;102578.22;;;12.55;100.00
25430;BME280;13360;48.152;-1.788;2023-03-21T05:20:50;102591.56;;;12.58;100.00
25430;BME280;13360;48.152;-1.788;2023-03-21T05:23:19;102601.53;;;12.59;100.00
25430;BME280;13360;48.152;-1.788;2023-03-21T05:25:45;102608.75;;;12.60;100.00
25430;BME280;13360;48.152;-1.788;2023-03-21T05:28:11;102612.63;;;12.59;100.00
25430;BME280;13360;48.152;-1.788;2023-03-21T05:30:36;102638.66;;;12.58;100.00
25430;BME280;13360;48.152;-1.788;2023-03-21T05:33:02;102645.28;;;12.52;100.00
25430;BME280;13360;48.152;-1.788;2023-03-21T05:35:27;102650.81;;;12.52;100.00
25430;BME280;13360;48.152;-1.788;2023-03-21T05:37:53;102667.47;;;12.52;100.00
25430;BME280;13360;48.152;-1.788;2023-03-21T05:40:19;102700.19;;;12.55;100.00
25430;BME280;13360;48.152;-1.788;2023-03-21T05:42:45;102704.09;;;12.59;100.00
25430;BME280;13360;48.152;-1.788;2023-03-21T05:45:11;102708.84;;;12.64;100.00
25430;BME280;13360;48.152;-1.788;2023-03-21T05:47:36;102711.38;;;12.65;100.00
25430;BME280;13360;48.152;-1.788;2023-03-21T05:50:02;102715.19;;;12.59;100.00
25430;BME280;13360;48.152;-1.788;2023-03-21T05:52:27;102717.28;;;12.47;100.00
25430;BME280;13360;48.152;-1.788;2023-03-21T05:54:54;102737.31;;;12.54;100.00
25430;BME280;13360;48.152;-1.788;2023-03-21T05:57:19;102742.88;;;12.54;100.00
25430;BME280;13360;48.152;-1.788;2023-03-21T05:59:45;102752.81;;;12.50;100.00
25430;BME280;13360;48.152;-1.788;2023-03-21T06:02:10;102755.59;;;12.50;100.00
25430;BME280;13360;48.152;-1.788;2023-03-21T06:04:36;102778.00;;;12.48;100.00
25430;BME280;13360;48.152;-1.788;2023-03-21T06:07:01;102789.44;;;12.52;100.00
25430;BME280;13360;48.152;-1.788;2023-03-21T06:09:27;102811.06;;;12.55;100.00
25430;BME280;13360;48.152;-1.788;2023-03-21T06:11:54;102832.72;;;12.58;100.00
25430;BME280;13360;48.152;-1.788;2023-03-21T06:14:20;102852.13;;;12.58;100.00
25430;BME280;13360;48.152;-1.788;2023-03-21T06:16:45;102870.38;;;12.54;100.00
25430;BME280;13360;48.152;-1.788;2023-03-21T06:19:11;102895.66;;;12.58;100.00
25430;BME280;13360;48.152;-1.788;2023-03-21T06:21:37;102899.25;;;12.58;100.00
25430;BME280;13360;48.152;-1.788;2023-03-21T06:24:02;102915.84;;;12.53;100.00
25430;BME280;13360;48.152;-1.788;2023-03-21T06:26:28;102944.13;;;12.55;100.00
25430;BME280;13360;48.152;-1.788;2023-03-21T06:28:53;102972.69;;;12.56;100.00
25430;BME280;13360;48.152;-1.788;2023-03-21T06:31:19;103002.09;;;12.57;100.00
25430;BME280;13360;48.152;-1.788;2023-03-21T06:33:50;103023.75;;;12.60;100.00
25430;BME280;13360;48.152;-1.788;2023-03-21T06:36:16;103030.47;;;12.64;100.00
25430;BME280;13360;48.152;-1.788;2023-03-21T06:38:41;103047.94;;;12.64;100.00
25430;BME280;13360;48.152;-1.788;2023-03-21T06:41:07;103078.72;;;12.63;100.00
25430;BME280;13360;48.152;-1.788;2023-03-21T06:43:33;103095.34;;;12.63;100.00
25430;BME280;13360;48.152;-1.788;2023-03-21T06:45:59;103110.63;;;12.65;100.00
25430;BME280;13360;48.152;-1.788;2023-03-21T06:48:25;103136.16;;;12.67;100.00
25430;BME280;13360;48.152;-1.788;2023-03-21T06:50:52;103137.59;;;12.70;100.00
25430;BME280;13360;48.152;-1.788;2023-03-21T06:53:19;103148.78;;;12.75;100.00
25430;BME280;13360;48.152;-1.788;2023-03-21T06:55:51;103162.72;;;12.80;100.00
25430;BME280;13360;48.152;-1.788;2023-03-21T06:58:17;103184.72;;;12.87;100.00
25430;BME280;13360;48.152;-1.788;2023-03-21T07:00:42;103190.53;;;12.85;100.00
25430;BME280;13360;48.152;-1.788;2023-03-21T07:03:09;103207.94;;;12.80;100.00
25430;BME280;13360;48.152;-1.788;2023-03-21T07:05:35;103225.50;;;12.86;100.00
25430;BME280;13360;48.152;-1.788;2023-03-21T07:08:01;103247.44;;;12.88;100.00
25430;BME280;13360;48.152;-1.788;2023-03-21T07:10:26;103263.00;;;12.89;100.00
25430;BME280;13360;48.152;-1.788;2023-03-21T07:12:52;103270.22;;;12.90;100.00
25430;BME280;13360;48.152;-1.788;2023-03-21T07:15:17;103291.31;;;12.91;100.00
25430;BME280;13360;48.152;-1.788;2023-03-21T07:17:42;103309.16;;;12.95;100.00
25430;BME280;13360;48.152;-1.788;2023-03-21T07:20:08;103336.91;;;12.95;100.00
25430;BME280;13360;48.152;-1.788;2023-03-21T07:22:36;103355.91;;;13.03;100.00
25430;BME280;13360;48.152;-1.788;2023-03-21T07:25:02;103370.97;;;13.07;100.00
25430;BME280;13360;48.152;-1.788;2023-03-21T07:27:27;103397.75;;;13.13;100.00
25430;BME280;13360;48.152;-1.788;2023-03-21T07:29:53;103398.44;;;13.20;100.00
25430;BME280;13360;48.152;-1.788;2023-03-21T07:32:18;103420.22;;;13.28;100.00
25430;BME280;13360;48.152;-1.788;2023-03-21T07:34:43;103421.91;;;13.29;100.00
25430;BME280;13360;48.152;-1.788;2023-03-21T07:37:08;103433.38;;;13.33;100.00
25430;BME280;13360;48.152;-1.788;2023-03-21T07:39:34;103454.84;;;13.37;100.00
25430;BME280;13360;48.152;-1.788;2023-03-21T07:42:00;103466.03;;;13.42;100.00
25430;BME280;13360;48.152;-1.788;2023-03-21T07:44:26;103475.78;;;13.45;100.00
25430;BME280;13360;48.152;-1.788;2023-03-21T07:46:53;103488.91;;;13.50;100.00
25430;BME280;13360;48.152;-1.788;2023-03-21T07:49:18;103497.84;;;13.52;100.00
25430;BME280;13360;48.152;-1.788;2023-03-21T07:51:44;103503.38;;;13.52;100.00
25430;BME280;13360;48.152;-1.788;2023-03-21T07:54:09;103512.81;;;13.51;100.00
25430;BME280;13360;48.152;-1.788;2023-03-21T07:56:34;103531.66;;;13.49;100.00
25430;BME280;13360;48.152;-1.788;2023-03-21T07:59:00;103556.91;;;13.47;100.00
25430;BME280;13360;48.152;-1.788;2023-03-21T08:01:26;103575.59;;;13.52;100.00
25430;BME280;13360;48.152;-1.788;2023-03-21T08:03:51;103592.97;;;13.59;100.00
25430;BME280;13360;48.152;-1.788;2023-03-21T08:06:18;103617.97;;;13.59;100.00
25430;BME280;13360;48.152;-1.788;2023-03-21T08:08:44;103625.69;;;13.57;100.00
25430;BME280;13360;48.152;-1.788;2023-03-21T08:11:10;103631.75;;;13.54;100.00
25430;BME280;13360;48.152;-1.788;2023-03-21T08:13:35;103660.06;;;13.67;100.00
25430;BME280;13360;48.152;-1.788;2023-03-21T08:16:01;103685.13;;;13.84;100.00
25430;BME280;13360;48.152;-1.788;2023-03-21T08:18:26;103693.31;;;13.91;100.00
25430;BME280;13360;48.152;-1.788;2023-03-21T08:20:56;103699.56;;;13.98;100.00
25430;BME280;13360;48.152;-1.788;2023-03-21T08:23:22;103722.94;;;14.14;100.00
25430;BME280;13360;48.152;-1.788;2023-03-21T08:25:55;103724.50;;;14.21;100.00
25430;BME280;13360;48.152;-1.788;2023-03-21T08:28:21;103721.13;;;14.36;100.00
25430;BME280;13360;48.152;-1.788;2023-03-21T08:30:48;103697.19;;;14.35;100.00
25430;BME280;13360;48.152;-1.788;2023-03-21T08:33:14;103656.44;;;14.41;100.00
25430;BME280;13360;48.152;-1.788;2023-03-21T08:35:40;103617.03;;;14.44;100.00
25430;BME280;13360;48.152;-1.788;2023-03-21T08:38:06;103592.25;;;14.59;100.00
25430;BME280;13360;48.152;-1.788;2023-03-21T08:40:32;103512.91;;;14.56;100.00
25430;BME280;13360;48.152;-1.788;2023-03-21T08:42:58;103451.47;;;14.58;100.00
25430;BME280;13360;48.152;-1.788;2023-03-21T08:45:23;103452.72;;;14.94;100.00
25430;BME280;13360;48.152;-1.788;2023-03-21T08:47:49;103403.56;;;15.00;100.00
25430;BME280;13360;48.152;-1.788;2023-03-21T08:50:18;103327.19;;;14.90;100.00
25430;BME280;13360;48.152;-1.788;2023-03-21T08:52:44;103272.28;;;14.81;100.00
25430;BME280;13360;48.152;-1.788;2023-03-21T08:55:11;103225.75;;;14.76;100.00
25430;BME280;13360;48.152;-1.788;2023-03-21T08:57:36;103194.97;;;14.88;100.00
25430;BME280;13360;48.152;-1.788;2023-03-21T09:00:05;103171.09;;;14.97;100.00
25430;BME280;13360;48.152;-1.788;2023-03-21T09:02:49;103162.69;;;15.29;100.00
25430;BME280;13360;48.152;-1.788;2023-03-21T09:05:16;103090.00;;;15.25;100.00
25430;BME280;13360;48.152;-1.788;2023-03-21T09:07:42;103023.94;;;15.06;100.00
25430;BME280;13360;48.152;-1.788;2023-03-21T09:10:10;102990.47;;;14.95;100.00
25430;BME280;13360;48.152;-1.788;2023-03-21T09:12:36;102977.13;;;14.92;100.00
25430;BME280;13360;48.152;-1.788;2023-03-21T09:15:01;102963.81;;;15.10;100.00
25430;BME280;13360;48.152;-1.788;2023-03-21T09:17:30;102959.94;;;15.16;100.00
25430;BME280;13360;48.152;-1.788;2023-03-21T09:19:57;102925.13;;;15.13;100.00
25430;BME280;13360;48.152;-1.788;2023-03-21T09:22:23;102954.50;;;15.77;100.00
25430;BME280;13360;48.152;-1.788;2023-03-21T09:24:49;102918.78;;;16.25;100.00
25430;BME280;13360;48.152;-1.788;2023-03-21T09:27:15;102851.41;;;16.62;100.00
25430;BME280;13360;48.152;-1.788;2023-03-21T09:29:49;102807.22;;;17.23;100.00
25430;BME280;13360;48.152;-1.788;2023-03-21T09:32:15;102695.44;;;17.57;100.00
25430;BME280;13360;48.152;-1.788;2023-03-21T09:34:42;102661.03;;;18.05;100.00
25430;BME280;13360;48.152;-1.788;2023-03-21T09:37:09;102550.47;;;18.12;100.00
25430;BME280;13360;48.152;-1.788;2023-03-21T09:39:38;102376.28;;;17.60;100.00
25430;BME280;13360;48.152;-1.788;2023-03-21T09:44:53;102261.38;;;17.34;100.00
25430;BME280;13360;48.152;-1.788;2023-03-21T09:47:25;102270.63;;;17.95;100.00
25430;BME280;13360;48.152;-1.788;2023-03-21T09:50:20;102224.91;;;18.41;100.00
25430;BME280;13360;48.152;-1.788;2023-03-21T09:52:59;102180.22;;;19.08;100.00
25430;BME280;13360;48.152;-1.788;2023-03-21T09:55:30;102051.03;;;18.70;100.00
25430;BME280;13360;48.152;-1.788;2023-03-21T10:00:52;101846.47;;;18.09;100.00
25430;BME280;13360;48.152;-1.788;2023-03-21T10:03:28;101826.13;;;18.17;100.00
25430;BME280;13360;48.152;-1.788;2023-03-21T10:05:56;101753.06;;;18.10;100.00
25430;BME280;13360;48.152;-1.788;2023-03-21T10:08:27;101676.28;;;18.16;100.00
25430;BME280;13360;48.152;-1.788;2023-03-21T10:11:08;101626.63;;;18.48;100.00
25430;BME280;13360;48.152;-1.788;2023-03-21T10:13:41;101559.66;;;17.91;100.00
25430;BME280;13360;48.152;-1.788;2023-03-21T10:16:12;101532.53;;;17.91;100.00
25430;BME280;13360;48.152;-1.788;2023-03-21T10:18:39;101489.94;;;18.20;100.00
25430;BME280;13360;48.152;-1.788;2023-03-21T10:21:06;101483.66;;;18.58;100.00
25430;BME280;13360;48.152;-1.788;2023-03-21T10:23:36;101462.91;;;18.59;100.00
25430;BME280;13360;48.152;-1.788;2023-03-21T10:26:04;101440.19;;;18.69;100.00
25430;BME280;13360;48.152;-1.788;2023-03-21T10:28:36;101411.88;;;18.62;100.00
25430;BME280;13360;48.152;-1.788;2023-03-21T10:31:08;101398.41;;;18.64;100.00
25430;BME280;13360;48.152;-1.788;2023-03-21T10:33:42;101387.84;;;18.61;100.00
25430;BME280;13360;48.152;-1.788;2023-03-21T10:36:15;101365.81;;;18.59;100.00
25430;BME280;13360;48.152;-1.788;2023-03-21T10:38:48;101385.03;;;18.70;100.00
25430;BME280;13360;48.152;-1.788;2023-03-21T10:41:13;101372.69;;;18.62;100.00
25430;BME280;13360;48.152;-1.788;2023-03-21T10:43:39;101356.53;;;18.29;100.00
25430;BME280;13360;48.152;-1.788;2023-03-21T10:46:08;101385.81;;;18.23;100.00
25430;BME280;13360;48.152;-1.788;2023-03-21T10:48:37;101352.88;;;17.91;100.00
25430;BME280;13360;48.152;-1.788;2023-03-21T10:51:06;101359.44;;;17.78;100.00
25430;BME280;13360;48.152;-1.788;2023-03-21T10:53:39;101340.84;;;17.47;100.00
25430;BME280;13360;48.152;-1.788;2023-03-21T10:56:07;101305.38;;;17.39;100.00
25430;BME280;13360;48.152;-1.788;2023-03-21T10:58:43;101318.00;;;17.62;100.00
25430;BME280;13360;48.152;-1.788;2023-03-21T11:01:13;101317.84;;;17.59;100.00
25430;BME280;13360;48.152;-1.788;2023-03-21T11:03:44;101325.59;;;17.53;100.00
25430;BME280;13360;48.152;-1.788;2023-03-21T11:06:43;101372.22;;;17.61;100.00
25430;BME280;13360;48.152;-1.788;2023-03-21T11:09:19;101389.81;;;17.62;100.00
25430;BME280;13360;48.152;-1.788;2023-03-21T11:11:53;101329.69;;;17.56;100.00
25430;BME280;13360;48.152;-1.788;2023-03-21T11:14:44;101332.16;;;17.57;100.00
25430;BME280;13360;48.152;-1.788;2023-03-21T11:19:46;101302.56;;;17.48;100.00
25430;BME280;13360;48.152;-1.788;2023-03-21T11:22:13;101292.59;;;17.29;100.00
25430;BME280;13360;48.152;-1.788;2023-03-21T11:24:41;101277.94;;;17.24;100.00
25430;BME280;13360;48.152;-1.788;2023-03-21T11:27:07;101283.88;;;17.40;100.00
25430;BME280;13360;48.152;-1.788;2023-03-21T11:29:35;101275.00;;;17.29;100.00
25430;BME280;13360;48.152;-1.788;2023-03-21T11:34:49;101289.44;;;17.22;100.00
25430;BME280;13360;48.152;-1.788;2023-03-21T11:37:32;101277.28;;;17.27;100.00
25430;BME280;13360;48.152;-1.788;2023-03-21T11:42:43;101296.50;;;17.46;100.00
25430;BME280;13360;48.152;-1.788;2023-03-21T11:45:17;101314.06;;;17.46;100.00
25430;BME280;13360;48.152;-1.788;2023-03-21T11:47:42;101342.16;;;17.58;100.00
25430;BME280;13360;48.152;-1.788;2023-03-21T11:50:32;101310.16;;;17.73;100.00
25430;BME280;13360;48.152;-1.788;2023-03-21T12:03:58;101322.22;;;18.12;100.00
25430;BME280;13360;48.152;-1.788;2023-03-21T12:06:31;101291.66;;;18.07;100.00
25430;BME280;13360;48.152;-1.788;2023-03-21T12:12:08;101262.66;;;17.73;100.00
25430;BME280;13360;48.152;-1.788;2023-03-21T12:20:43;101240.50;;;17.42;100.00
25430;BME280;13360;48.152;-1.788;2023-03-21T12:34:08;101202.50;;;17.76;100.00
25430;BME280;13360;48.152;-1.788;2023-03-21T12:39:51;101213.50;;;17.81;100.00
25430;BME280;13360;48.152;-1.788;2023-03-21T12:45:11;101217.38;;;17.97;100.00
25430;BME280;13360;48.152;-1.788;2023-03-21T12:47:42;101200.94;;;17.95;100.00
25430;BME280;13360;48.152;-1.788;2023-03-21T12:50:25;101227.88;;;18.00;100.00
25430;BME280;13360;48.152;-1.788;2023-03-21T12:53:04;101194.06;;;17.93;100.00
25430;BME280;13360;48.152;-1.788;2023-03-21T12:55:33;101196.66;;;17.98;100.00
25430;BME280;13360;48.152;-1.788;2023-03-21T12:58:28;101192.22;;;17.97;100.00
25430;BME280;13360;48.152;-1.788;2023-03-21T13:00:57;101177.34;;;17.76;100.00
25430;BME280;13360;48.152;-1.788;2023-03-21T13:03:30;101172.75;;;17.62;100.00
25430;BME280;13360;48.152;-1.788;2023-03-21T13:06:01;101182.28;;;17.79;100.00
25430;BME280;13360;48.152;-1.788;2023-03-21T13:08:36;101180.00;;;17.63;100.00
25430;BME280;13360;48.152;-1.788;2023-03-21T13:11:05;101170.16;;;17.57;100.00
25430;BME280;13360;48.152;-1.788;2023-03-21T13:13:38;101161.78;;;17.49;100.00
25430;BME280;13360;48.152;-1.788;2023-03-21T13:16:31;101157.78;;;17.67;100.00
25430;BME280;13360;48.152;-1.788;2023-03-21T13:19:10;101191.91;;;17.90;100.00
25430;BME280;13360;48.152;-1.788;2023-03-21T13:24:42;101223.44;;;17.99;100.00
25430;BME280;13360;48.152;-1.788;2023-03-21T13:29:53;101195.03;;;17.97;100.00
25430;BME280;13360;48.152;-1.788;2023-03-21T13:34:59;101146.94;;;17.65;100.00
25430;BME280;13360;48.152;-1.788;2023-03-21T13:37:33;101144.97;;;17.66;100.00
25430;BME280;13360;48.152;-1.788;2023-03-21T13:40:01;101154.91;;;17.55;100.00
25430;BME280;13360;48.152;-1.788;2023-03-21T13:42:32;101136.84;;;17.44;100.00
25430;BME280;13360;48.152;-1.788;2023-03-21T13:45:01;101160.47;;;17.55;100.00
25430;BME280;13360;48.152;-1.788;2023-03-21T13:50:19;101197.56;;;17.64;100.00
25430;BME280;13360;48.152;-1.788;2023-03-21T13:55:27;101191.84;;;17.60;100.00
25430;BME280;13360;48.152;-1.788;2023-03-21T13:57:53;101185.44;;;17.60;100.00
25430;BME280;13360;48.152;-1.788;2023-03-21T14:00:28;101156.53;;;17.47;100.00
25430;BME280;13360;48.152;-1.788;2023-03-21T14:02:56;101202.03;;;17.74;100.00
25430;BME280;13360;48.152;-1.788;2023-03-21T14:05:24;101161.28;;;17.73;100.00
25430;BME280;13360;48.152;-1.788;2023-03-21T14:08:03;101151.25;;;17.63;100.00
25430;BME280;13360;48.152;-1.788;2023-03-21T14:10:38;101125.81;;;17.47;100.00
25430;BME280;13360;48.152;-1.788;2023-03-21T14:13:07;101138.94;;;17.55;100.00
25430;BME280;13360;48.152;-1.788;2023-03-21T14:15:50;101127.94;;;17.59;100.00
25430;BME280;13360;48.152;-1.788;2023-03-21T14:18:21;101160.44;;;17.72;100.00
25430;BME280;13360;48.152;-1.788;2023-03-21T14:20:55;101190.03;;;17.73;100.00